Capt. Ted — WDD6210 — position and weather

sailwx.info

Track history (hours):
 
Tides and Currents Weather Stations Pressure Air Temp Water Temp Dewpoint Dewpoint Depression Visibility Wind Speed Wind Dir Waves Ship Positions

Capt. Ted

Owner: Salisbury Towing Corporation, Richmond, VA. More information available from US FCC via Universal Licensing System and Coast Guard Vessel Documentation Center.

Last reported at 2017-Apr-27 21:59 UTC. Time now 2017-Apr-28 18:10 UTC.
Position N 37°58' W 076°18'.

Length 32 m; draft 2.8 m.

Type: Tug. MMSI: 367169710.

Date/timePositionNaut miles runAvg speedWind from/ knotsBaromVisibWave heightAir tempDewpointWater temp
2017-Apr-27 21:59N 37°58' W 076°18'4 8.7
2017-Apr-27 21:29N 38°01' W 076°22'4 8.3
2017-Apr-27 21:00N 38°03' W 076°27'5 8.6
2017-Apr-27 20:27N 38°06' W 076°31'2 0.1
2017-Apr-27 00:39N 38°07' W 076°33'1 5.9
2017-Apr-27 00:30N 38°07' W 076°32'4 6.0
2017-Apr-26 23:54N 38°04' W 076°28'3 6.1
2017-Apr-26 23:28N 38°03' W 076°26'3 5.8
2017-Apr-26 22:58N 38°01' W 076°23'  
2017-Apr-24 09:52N 37°57' W 075°44'0 0.0
2017-Apr-24 09:08N 37°57' W 075°44'3 0.7
2017-Apr-24 05:29N 37°55' W 075°46'26 2.2
2017-Apr-23 17:30N 37°60' W 076°19'4 8.3
2017-Apr-23 17:00N 38°02' W 076°23'4 8.3
2017-Apr-23 16:30N 38°04' W 076°28'3 0.1
2017-Apr-22 21:35N 38°06' W 076°31'2 6.8
2017-Apr-22 21:19N 38°05' W 076°29'3 6.9
2017-Apr-22 20:56N 38°04' W 076°26'3 6.9
2017-Apr-22 20:28N 38°02' W 076°22'3 6.7
2017-Apr-22 19:58N 38°00' W 076°19'50 1.2
2017-Apr-21 03:01N 38°50' W 076°26'1 4.7
2017-Apr-21 02:54N 38°51' W 076°26'14 6.0
2017-Apr-21 00:39N 39°04' W 076°24'2 6.2
2017-Apr-21 00:16N 39°06' W 076°24'2 6.2
2017-Apr-21 00:00N 39°08' W 076°24'3 5.8
2017-Apr-20 23:29N 39°11' W 076°26'3 5.2
2017-Apr-20 23:00N 39°12' W 076°29'3 5.3
2017-Apr-20 22:30N 39°13' W 076°32'3 5.7
2017-Apr-20 22:00N 39°15' W 076°35'1 1.0
2017-Apr-20 20:40N 39°15' W 076°36'1 6.5
2017-Apr-20 20:30N 39°15' W 076°35'2 4.0
2017-Apr-20 20:00N 39°14' W 076°34'0 0.0
2017-Apr-20 19:30N 39°14' W 076°34'0 0.0
2017-Apr-20 19:00N 39°14' W 076°34'0 0.1
2017-Apr-20 18:30N 39°13' W 076°34'1 3.0
2017-Apr-20 18:00N 39°13' W 076°32'3 5.7
2017-Apr-20 17:30N 39°12' W 076°29'3 5.3
2017-Apr-20 17:00N 39°11' W 076°26'16 4.9
2017-Apr-20 13:44N 39°21' W 076°10'1 6.6
2017-Apr-20 13:30N 39°22' W 076°08'3 6.4
2017-Apr-20 13:00N 39°23' W 076°04'3 5.7
2017-Apr-20 12:30N 39°26' W 076°02'3 5.0
2017-Apr-20 12:00N 39°28' W 076°03'3 5.1
2017-Apr-20 11:30N 39°30' W 076°05'3 5.2
2017-Apr-20 11:00N 39°33' W 076°05'1 2.9
2017-Apr-20 10:30N 39°34' W 076°06'2 3.8
2017-Apr-20 10:00N 39°32' W 076°05'3 6.8
2017-Apr-20 09:30N 39°29' W 076°04'4 7.3
2017-Apr-20 09:00N 39°25' W 076°02'4 8.3
2017-Apr-20 08:30N 39°23' W 076°06'4 8.6
2017-Apr-20 08:00N 39°20' W 076°11'6 8.5
2017-Apr-20 07:21N 39°16' W 076°16'3 8.4
2017-Apr-20 07:00N 39°14' W 076°19'5 8.4
2017-Apr-20 06:24N 39°12' W 076°24'3 7.3
2017-Apr-20 06:00N 39°11' W 076°28'4 8.0
2017-Apr-20 05:30N 39°14' W 076°32'3 6.1
2017-Apr-20 05:00N 39°15' W 076°36'0 0.5
2017-Apr-20 04:30N 39°15' W 076°36'2 4.6
2017-Apr-20 04:00N 39°14' W 076°33'4 7.0
2017-Apr-20 03:30N 39°12' W 076°30'3 6.8
2017-Apr-20 03:00N 39°11' W 076°26'3 6.0
2017-Apr-20 02:30N 39°13' W 076°23'17 7.1
2017-Apr-20 00:06N 39°23' W 076°05'4 6.9
2017-Apr-19 23:34N 39°26' W 076°02'0 6.8
2017-Apr-19 23:30N 39°26' W 076°02'3 6.4
2017-Apr-19 23:00N 39°29' W 076°05'3 6.6
2017-Apr-19 22:29N 39°32' W 076°05'2 4.5
2017-Apr-19 22:00N 39°34' W 076°06'0 0.3
2017-Apr-19 21:22N 39°34' W 076°06'0 0.0
2017-Apr-19 19:41N 39°34' W 076°06'0 0.1
2017-Apr-19 19:25N 39°34' W 076°06'0 0.1
2017-Apr-19 19:00N 39°34' W 076°06'0 0.0
2017-Apr-19 18:30N 39°34' W 076°06'0 0.1
2017-Apr-19 18:00N 39°34' W 076°06'0 0.0
2017-Apr-19 17:30N 39°34' W 076°06'0 0.0
2017-Apr-19 17:00N 39°34' W 076°06'0 0.7
2017-Apr-19 16:30N 39°34' W 076°06'4 7.6
2017-Apr-19 16:00N 39°30' W 076°05'4 7.3
2017-Apr-19 15:30N 39°27' W 076°03'4 7.4
2017-Apr-19 15:00N 39°24' W 076°04'4 8.3
2017-Apr-19 14:30N 39°22' W 076°09'10 7.7
2017-Apr-19 13:10N 39°13' W 076°15'2 7.9
2017-Apr-19 12:53N 39°11' W 076°17'4 7.7
2017-Apr-19 12:18N 39°07' W 076°20'2 7.7
2017-Apr-19 12:00N 39°05' W 076°21'5 7.9
2017-Apr-19 11:25N 39°01' W 076°23'3 7.7
2017-Apr-19 11:00N 38°58' W 076°24'4 8.1
2017-Apr-19 10:28N 38°53' W 076°25'4 7.9
2017-Apr-19 10:00N 38°50' W 076°26'5 7.9
2017-Apr-19 09:21N 38°45' W 076°27'1 0.0
2017-Apr-18 03:37N 38°46' W 076°27'1 6.9
2017-Apr-18 03:30N 38°46' W 076°27'3 6.8
2017-Apr-18 03:00N 38°50' W 076°26'3 6.8
2017-Apr-18 02:30N 38°53' W 076°25'4 6.9
2017-Apr-18 01:57N 38°57' W 076°24'3 6.9
2017-Apr-18 01:30N 38°60' W 076°23'4 6.7
2017-Apr-18 00:55N 39°04' W 076°22'3 6.4
2017-Apr-18 00:30N 39°06' W 076°20'4 7.0
2017-Apr-17 23:57N 39°10' W 076°18'  
Track history (hours):
 
Tides and Currents Weather Stations Pressure Air Temp Water Temp Dewpoint Dewpoint Depression Visibility Wind Speed Wind Dir Waves Ship Positions

Capt. Ted

Owner: Salisbury Towing Corporation, Richmond, VA. More information available from US FCC via Universal Licensing System and Coast Guard Vessel Documentation Center.

Last reported at 2017-Apr-27 21:59 UTC. Time now 2017-Apr-28 18:10 UTC.
Position N 37°58' W 076°18'.

Length 32 m; draft 2.8 m.

Type: Tug. MMSI: 367169710.

Date/timePositionNaut miles runAvg speedWind from/ knotsBaromVisibWave heightAir tempDewpointWater temp
2017-Apr-27 21:59N 37°58' W 076°18'4 8.7
2017-Apr-27 21:29N 38°01' W 076°22'4 8.3
2017-Apr-27 21:00N 38°03' W 076°27'5 8.6
2017-Apr-27 20:27N 38°06' W 076°31'2 0.1
2017-Apr-27 00:39N 38°07' W 076°33'1 5.9
2017-Apr-27 00:30N 38°07' W 076°32'4 6.0
2017-Apr-26 23:54N 38°04' W 076°28'3 6.1
2017-Apr-26 23:28N 38°03' W 076°26'3 5.8
2017-Apr-26 22:58N 38°01' W 076°23'  
2017-Apr-24 09:52N 37°57' W 075°44'0 0.0
2017-Apr-24 09:08N 37°57' W 075°44'3 0.7
2017-Apr-24 05:29N 37°55' W 075°46'26 2.2
2017-Apr-23 17:30N 37°60' W 076°19'4 8.3
2017-Apr-23 17:00N 38°02' W 076°23'4 8.3
2017-Apr-23 16:30N 38°04' W 076°28'3 0.1
2017-Apr-22 21:35N 38°06' W 076°31'2 6.8
2017-Apr-22 21:19N 38°05' W 076°29'3 6.9
2017-Apr-22 20:56N 38°04' W 076°26'3 6.9
2017-Apr-22 20:28N 38°02' W 076°22'3 6.7
2017-Apr-22 19:58N 38°00' W 076°19'50 1.2
2017-Apr-21 03:01N 38°50' W 076°26'1 4.7
2017-Apr-21 02:54N 38°51' W 076°26'14 6.0
2017-Apr-21 00:39N 39°04' W 076°24'2 6.2
2017-Apr-21 00:16N 39°06' W 076°24'2 6.2
2017-Apr-21 00:00N 39°08' W 076°24'3 5.8
2017-Apr-20 23:29N 39°11' W 076°26'3 5.2
2017-Apr-20 23:00N 39°12' W 076°29'3 5.3
2017-Apr-20 22:30N 39°13' W 076°32'3 5.7
2017-Apr-20 22:00N 39°15' W 076°35'1 1.0
2017-Apr-20 20:40N 39°15' W 076°36'1 6.5
2017-Apr-20 20:30N 39°15' W 076°35'2 4.0
2017-Apr-20 20:00N 39°14' W 076°34'0 0.0
2017-Apr-20 19:30N 39°14' W 076°34'0 0.0
2017-Apr-20 19:00N 39°14' W 076°34'0 0.1
2017-Apr-20 18:30N 39°13' W 076°34'1 3.0
2017-Apr-20 18:00N 39°13' W 076°32'3 5.7
2017-Apr-20 17:30N 39°12' W 076°29'3 5.3
2017-Apr-20 17:00N 39°11' W 076°26'16 4.9
2017-Apr-20 13:44N 39°21' W 076°10'1 6.6
2017-Apr-20 13:30N 39°22' W 076°08'3 6.4
2017-Apr-20 13:00N 39°23' W 076°04'3 5.7
2017-Apr-20 12:30N 39°26' W 076°02'3 5.0
2017-Apr-20 12:00N 39°28' W 076°03'3 5.1
2017-Apr-20 11:30N 39°30' W 076°05'3 5.2
2017-Apr-20 11:00N 39°33' W 076°05'1 2.9
2017-Apr-20 10:30N 39°34' W 076°06'2 3.8
2017-Apr-20 10:00N 39°32' W 076°05'3 6.8
2017-Apr-20 09:30N 39°29' W 076°04'4 7.3
2017-Apr-20 09:00N 39°25' W 076°02'4 8.3
2017-Apr-20 08:30N 39°23' W 076°06'4 8.6
2017-Apr-20 08:00N 39°20' W 076°11'6 8.5
2017-Apr-20 07:21N 39°16' W 076°16'3 8.4
2017-Apr-20 07:00N 39°14' W 076°19'5 8.4
2017-Apr-20 06:24N 39°12' W 076°24'3 7.3
2017-Apr-20 06:00N 39°11' W 076°28'4 8.0
2017-Apr-20 05:30N 39°14' W 076°32'3 6.1
2017-Apr-20 05:00N 39°15' W 076°36'0 0.5
2017-Apr-20 04:30N 39°15' W 076°36'2 4.6
2017-Apr-20 04:00N 39°14' W 076°33'4 7.0
2017-Apr-20 03:30N 39°12' W 076°30'3 6.8
2017-Apr-20 03:00N 39°11' W 076°26'3 6.0
2017-Apr-20 02:30N 39°13' W 076°23'17 7.1
2017-Apr-20 00:06N 39°23' W 076°05'4 6.9
2017-Apr-19 23:34N 39°26' W 076°02'0 6.8
2017-Apr-19 23:30N 39°26' W 076°02'3 6.4
2017-Apr-19 23:00N 39°29' W 076°05'3 6.6
2017-Apr-19 22:29N 39°32' W 076°05'2 4.5
2017-Apr-19 22:00N 39°34' W 076°06'0 0.3
2017-Apr-19 21:22N 39°34' W 076°06'0 0.0
2017-Apr-19 19:41N 39°34' W 076°06'0 0.1
2017-Apr-19 19:25N 39°34' W 076°06'0 0.1
2017-Apr-19 19:00N 39°34' W 076°06'0 0.0
2017-Apr-19 18:30N 39°34' W 076°06'0 0.1
2017-Apr-19 18:00N 39°34' W 076°06'0 0.0
2017-Apr-19 17:30N 39°34' W 076°06'0 0.0
2017-Apr-19 17:00N 39°34' W 076°06'0 0.7
2017-Apr-19 16:30N 39°34' W 076°06'4 7.6
2017-Apr-19 16:00N 39°30' W 076°05'4 7.3
2017-Apr-19 15:30N 39°27' W 076°03'4 7.4
2017-Apr-19 15:00N 39°24' W 076°04'4 8.3
2017-Apr-19 14:30N 39°22' W 076°09'10 7.7
2017-Apr-19 13:10N 39°13' W 076°15'2 7.9
2017-Apr-19 12:53N 39°11' W 076°17'4 7.7
2017-Apr-19 12:18N 39°07' W 076°20'2 7.7
2017-Apr-19 12:00N 39°05' W 076°21'5 7.9
2017-Apr-19 11:25N 39°01' W 076°23'3 7.7
2017-Apr-19 11:00N 38°58' W 076°24'4 8.1
2017-Apr-19 10:28N 38°53' W 076°25'4 7.9
2017-Apr-19 10:00N 38°50' W 076°26'5 7.9
2017-Apr-19 09:21N 38°45' W 076°27'1 0.0
2017-Apr-18 03:37N 38°46' W 076°27'1 6.9
2017-Apr-18 03:30N 38°46' W 076°27'3 6.8
2017-Apr-18 03:00N 38°50' W 076°26'3 6.8
2017-Apr-18 02:30N 38°53' W 076°25'4 6.9
2017-Apr-18 01:57N 38°57' W 076°24'3 6.9
2017-Apr-18 01:30N 38°60' W 076°23'4 6.7
2017-Apr-18 00:55N 39°04' W 076°22'3 6.4
2017-Apr-18 00:30N 39°06' W 076°20'4 7.0
2017-Apr-17 23:57N 39°10' W 076°18'  

Dump ship's entire track history